sensor_id;sensor_type;location;lat;lon;timestamp;pressure;altitude;pressure_sealevel;temperature;humidity
60974;BME280;46846;51.528;5.076;2022-08-03T00:00:41;100996.13;;;26.52;42.77
60974;BME280;46846;51.528;5.076;2022-08-03T00:03:06;100997.44;;;26.48;42.70
60974;BME280;46846;51.528;5.076;2022-08-03T00:05:32;100993.31;;;26.44;42.46
60974;BME280;46846;51.528;5.076;2022-08-03T00:07:58;100985.59;;;26.39;42.60
60974;BME280;46846;51.528;5.076;2022-08-03T00:10:24;100990.50;;;26.36;42.61
60974;BME280;46846;51.528;5.076;2022-08-03T00:12:50;100987.22;;;26.32;42.87
60974;BME280;46846;51.528;5.076;2022-08-03T00:15:16;100994.88;;;26.28;42.70
60974;BME280;46846;51.528;5.076;2022-08-03T00:17:41;100990.72;;;26.24;43.03
60974;BME280;46846;51.528;5.076;2022-08-03T00:20:07;100988.28;;;26.21;42.65
60974;BME280;46846;51.528;5.076;2022-08-03T00:22:34;100989.56;;;26.17;42.70
60974;BME280;46846;51.528;5.076;2022-08-03T00:24:59;100985.28;;;26.14;42.75
60974;BME280;46846;51.528;5.076;2022-08-03T00:27:25;100979.25;;;26.11;42.90
60974;BME280;46846;51.528;5.076;2022-08-03T00:29:50;100987.75;;;26.07;42.71
60974;BME280;46846;51.528;5.076;2022-08-03T00:32:15;100980.88;;;26.03;43.01
60974;BME280;46846;51.528;5.076;2022-08-03T00:34:41;100975.75;;;26.00;43.00
60974;BME280;46846;51.528;5.076;2022-08-03T00:37:06;100978.75;;;25.97;43.01
60974;BME280;46846;51.528;5.076;2022-08-03T00:39:32;100973.63;;;25.94;42.88
60974;BME280;46846;51.528;5.076;2022-08-03T00:42:01;100976.78;;;25.89;42.96
60974;BME280;46846;51.528;5.076;2022-08-03T00:44:26;100973.19;;;25.89;43.19
60974;BME280;46846;51.528;5.076;2022-08-03T00:46:52;100980.69;;;25.87;42.85
60974;BME280;46846;51.528;5.076;2022-08-03T00:49:17;100970.94;;;25.84;43.07
60974;BME280;46846;51.528;5.076;2022-08-03T00:51:42;100970.22;;;25.82;43.12
60974;BME280;46846;51.528;5.076;2022-08-03T00:54:08;100968.66;;;25.79;43.36
60974;BME280;46846;51.528;5.076;2022-08-03T00:56:34;100969.81;;;25.77;43.28
60974;BME280;46846;51.528;5.076;2022-08-03T00:59:01;100959.09;;;25.75;43.16
60974;BME280;46846;51.528;5.076;2022-08-03T01:01:30;100961.25;;;25.72;43.44
60974;BME280;46846;51.528;5.076;2022-08-03T01:03:55;100957.78;;;25.70;43.21
60974;BME280;46846;51.528;5.076;2022-08-03T01:06:42;100963.41;;;25.68;43.20
60974;BME280;46846;51.528;5.076;2022-08-03T01:09:24;100959.13;;;25.65;43.58
60974;BME280;46846;51.528;5.076;2022-08-03T01:12:07;100952.38;;;25.60;43.22
60974;BME280;46846;51.528;5.076;2022-08-03T01:14:42;100949.97;;;25.57;43.10
60974;BME280;46846;51.528;5.076;2022-08-03T01:22:43;100945.38;;;25.47;43.53
60974;BME280;46846;51.528;5.076;2022-08-03T01:28:21;100943.25;;;25.41;43.45
60974;BME280;46846;51.528;5.076;2022-08-03T01:30:55;100948.13;;;25.37;43.50
60974;BME280;46846;51.528;5.076;2022-08-03T01:33:39;100942.81;;;25.36;43.46
60974;BME280;46846;51.528;5.076;2022-08-03T01:36:18;100947.69;;;25.32;43.71
60974;BME280;46846;51.528;5.076;2022-08-03T01:39:00;100956.31;;;25.28;43.52
60974;BME280;46846;51.528;5.076;2022-08-03T01:41:32;100949.47;;;25.23;43.82
60974;BME280;46846;51.528;5.076;2022-08-03T01:44:00;100950.44;;;25.22;43.50
60974;BME280;46846;51.528;5.076;2022-08-03T01:46:27;100947.16;;;25.19;43.53
60974;BME280;46846;51.528;5.076;2022-08-03T01:48:55;100952.91;;;25.16;43.84
60974;BME280;46846;51.528;5.076;2022-08-03T01:51:22;100949.47;;;25.14;43.73
60974;BME280;46846;51.528;5.076;2022-08-03T01:53:49;100945.31;;;25.09;44.09
60974;BME280;46846;51.528;5.076;2022-08-03T01:56:17;100943.75;;;25.07;43.88
60974;BME280;46846;51.528;5.076;2022-08-03T01:58:45;100941.31;;;25.04;43.77
60974;BME280;46846;51.528;5.076;2022-08-03T02:01:14;100938.03;;;25.00;43.81
60974;BME280;46846;51.528;5.076;2022-08-03T02:03:42;100942.59;;;24.99;43.68
60974;BME280;46846;51.528;5.076;2022-08-03T02:06:10;100937.59;;;24.95;43.69
60974;BME280;46846;51.528;5.076;2022-08-03T02:08:38;100939.63;;;24.93;43.78
60974;BME280;46846;51.528;5.076;2022-08-03T02:11:05;100932.47;;;24.92;44.23
60974;BME280;46846;51.528;5.076;2022-08-03T02:13:32;100938.19;;;24.89;44.08
60974;BME280;46846;51.528;5.076;2022-08-03T02:15:58;100930.31;;;24.85;44.28
60974;BME280;46846;51.528;5.076;2022-08-03T02:18:25;100930.63;;;24.82;44.12
60974;BME280;46846;51.528;5.076;2022-08-03T02:20:52;100928.03;;;24.81;44.18
60974;BME280;46846;51.528;5.076;2022-08-03T02:23:18;100931.03;;;24.78;44.24
60974;BME280;46846;51.528;5.076;2022-08-03T02:25:47;100939.44;;;24.75;44.14
60974;BME280;46846;51.528;5.076;2022-08-03T02:28:21;100942.47;;;24.71;44.11
60974;BME280;46846;51.528;5.076;2022-08-03T02:30:52;100941.72;;;24.69;44.07
60974;BME280;46846;51.528;5.076;2022-08-03T02:33:24;100939.31;;;24.66;44.21
60974;BME280;46846;51.528;5.076;2022-08-03T02:35:51;100935.88;;;24.64;43.93
60974;BME280;46846;51.528;5.076;2022-08-03T02:38:20;100937.88;;;24.62;43.99
60974;BME280;46846;51.528;5.076;2022-08-03T02:40:48;100936.31;;;24.60;44.17
60974;BME280;46846;51.528;5.076;2022-08-03T02:43:17;100929.28;;;24.57;44.19
60974;BME280;46846;51.528;5.076;2022-08-03T02:45:47;100930.44;;;24.54;44.09
60974;BME280;46846;51.528;5.076;2022-08-03T02:48:17;100930.69;;;24.51;44.25
60974;BME280;46846;51.528;5.076;2022-08-03T02:50:45;100930.88;;;24.50;44.14
60974;BME280;46846;51.528;5.076;2022-08-03T02:53:11;100927.41;;;24.48;44.22
60974;BME280;46846;51.528;5.076;2022-08-03T02:55:38;100927.69;;;24.44;44.33
60974;BME280;46846;51.528;5.076;2022-08-03T02:58:05;100928.84;;;24.42;44.34
60974;BME280;46846;51.528;5.076;2022-08-03T03:00:32;100922.56;;;24.41;44.54
60974;BME280;46846;51.528;5.076;2022-08-03T03:02:59;100916.56;;;24.38;44.28
60974;BME280;46846;51.528;5.076;2022-08-03T03:05:26;100929.56;;;24.34;44.52
60974;BME280;46846;51.528;5.076;2022-08-03T03:07:52;100920.66;;;24.32;44.42
60974;BME280;46846;51.528;5.076;2022-08-03T03:10:23;100924.56;;;24.29;44.38
60974;BME280;46846;51.528;5.076;2022-08-03T03:12:52;100913.09;;;24.26;44.55
60974;BME280;46846;51.528;5.076;2022-08-03T03:15:19;100919.69;;;24.23;44.52
60974;BME280;46846;51.528;5.076;2022-08-03T03:17:46;100906.22;;;24.22;44.57
60974;BME280;46846;51.528;5.076;2022-08-03T03:20:14;100918.22;;;24.19;44.50
60974;BME280;46846;51.528;5.076;2022-08-03T03:22:41;100918.66;;;24.14;44.57
60974;BME280;46846;51.528;5.076;2022-08-03T03:25:07;100913.34;;;24.13;44.53
60974;BME280;46846;51.528;5.076;2022-08-03T03:27:33;100915.47;;;24.09;44.54
60974;BME280;46846;51.528;5.076;2022-08-03T03:29:59;100911.06;;;24.08;44.76
60974;BME280;46846;51.528;5.076;2022-08-03T03:32:28;100898.72;;;24.04;44.59
60974;BME280;46846;51.528;5.076;2022-08-03T03:34:54;100907.88;;;24.03;44.80
60974;BME280;46846;51.528;5.076;2022-08-03T03:37:20;100908.28;;;23.98;44.92
60974;BME280;46846;51.528;5.076;2022-08-03T03:39:46;100911.28;;;23.95;44.70
60974;BME280;46846;51.528;5.076;2022-08-03T03:42:11;100909.69;;;23.93;44.85
60974;BME280;46846;51.528;5.076;2022-08-03T03:44:37;100905.41;;;23.90;44.70
60974;BME280;46846;51.528;5.076;2022-08-03T03:47:02;100908.41;;;23.87;44.73
60974;BME280;46846;51.528;5.076;2022-08-03T03:49:28;100907.81;;;23.83;44.69
60974;BME280;46846;51.528;5.076;2022-08-03T03:51:55;100907.94;;;23.82;44.82
60974;BME280;46846;51.528;5.076;2022-08-03T03:54:20;100910.97;;;23.79;44.91
60974;BME280;46846;51.528;5.076;2022-08-03T03:56:46;100912.09;;;23.76;44.88
60974;BME280;46846;51.528;5.076;2022-08-03T03:59:11;100903.22;;;23.74;44.85
60974;BME280;46846;51.528;5.076;2022-08-03T04:01:38;100911.50;;;23.72;44.99
60974;BME280;46846;51.528;5.076;2022-08-03T04:04:04;100905.47;;;23.69;45.08
60974;BME280;46846;51.528;5.076;2022-08-03T04:06:48;100906.75;;;23.65;45.13
60974;BME280;46846;51.528;5.076;2022-08-03T04:09:34;100902.59;;;23.60;45.03
60974;BME280;46846;51.528;5.076;2022-08-03T04:12:21;100905.44;;;23.59;44.92
60974;BME280;46846;51.528;5.076;2022-08-03T04:14:49;100905.72;;;23.56;45.10
60974;BME280;46846;51.528;5.076;2022-08-03T04:17:17;100903.13;;;23.54;45.21
60974;BME280;46846;51.528;5.076;2022-08-03T04:19:46;100895.13;;;23.53;45.42
60974;BME280;46846;51.528;5.076;2022-08-03T04:22:15;100901.69;;;23.50;45.43
60974;BME280;46846;51.528;5.076;2022-08-03T04:24:51;100906.53;;;23.46;45.00
60974;BME280;46846;51.528;5.076;2022-08-03T04:27:21;100907.53;;;23.45;45.12
60974;BME280;46846;51.528;5.076;2022-08-03T04:29:48;100909.41;;;23.45;45.23
60974;BME280;46846;51.528;5.076;2022-08-03T04:32:16;100919.50;;;23.43;45.37
60974;BME280;46846;51.528;5.076;2022-08-03T04:34:42;100917.94;;;23.40;45.33
60974;BME280;46846;51.528;5.076;2022-08-03T04:37:16;100919.06;;;23.38;45.25
60974;BME280;46846;51.528;5.076;2022-08-03T04:39:43;100921.19;;;23.34;45.65
60974;BME280;46846;51.528;5.076;2022-08-03T04:42:10;100915.06;;;23.32;45.22
60974;BME280;46846;51.528;5.076;2022-08-03T04:44:39;100920.63;;;23.30;45.42
60974;BME280;46846;51.528;5.076;2022-08-03T04:47:06;100919.88;;;23.28;45.55
60974;BME280;46846;51.528;5.076;2022-08-03T04:49:31;100921.81;;;23.26;45.58
60974;BME280;46846;51.528;5.076;2022-08-03T04:51:57;100928.53;;;23.22;45.50
60974;BME280;46846;51.528;5.076;2022-08-03T04:54:22;100928.78;;;23.19;45.69
60974;BME280;46846;51.528;5.076;2022-08-03T04:56:48;100935.22;;;23.18;45.49
60974;BME280;46846;51.528;5.076;2022-08-03T04:59:13;100931.78;;;23.16;45.37
60974;BME280;46846;51.528;5.076;2022-08-03T05:01:39;100934.50;;;23.16;45.53
60974;BME280;46846;51.528;5.076;2022-08-03T05:04:06;100930.06;;;23.15;45.57
60974;BME280;46846;51.528;5.076;2022-08-03T05:06:31;100939.94;;;23.16;45.30
60974;BME280;46846;51.528;5.076;2022-08-03T05:08:57;100942.88;;;23.13;45.34
60974;BME280;46846;51.528;5.076;2022-08-03T05:11:22;100940.16;;;23.13;45.39
60974;BME280;46846;51.528;5.076;2022-08-03T05:13:47;100940.16;;;23.13;45.43
60974;BME280;46846;51.528;5.076;2022-08-03T05:16:13;100938.34;;;23.13;45.27
60974;BME280;46846;51.528;5.076;2022-08-03T05:18:42;100948.06;;;23.16;45.43
60974;BME280;46846;51.528;5.076;2022-08-03T05:21:08;100950.66;;;23.17;45.61
60974;BME280;46846;51.528;5.076;2022-08-03T05:23:34;100951.63;;;23.16;45.86
60974;BME280;46846;51.528;5.076;2022-08-03T05:25:59;100956.94;;;23.18;45.56
60974;BME280;46846;51.528;5.076;2022-08-03T05:28:25;100954.22;;;23.18;45.89
60974;BME280;46846;51.528;5.076;2022-08-03T05:30:50;100951.50;;;23.18;45.78
60974;BME280;46846;51.528;5.076;2022-08-03T05:33:15;100961.34;;;23.19;46.08
60974;BME280;46846;51.528;5.076;2022-08-03T05:35:41;100961.50;;;23.17;45.83
60974;BME280;46846;51.528;5.076;2022-08-03T05:38:06;100958.66;;;23.19;46.01
60974;BME280;46846;51.528;5.076;2022-08-03T05:40:32;100957.66;;;23.20;45.81
60974;BME280;46846;51.528;5.076;2022-08-03T05:42:58;100959.25;;;23.22;45.64
60974;BME280;46846;51.528;5.076;2022-08-03T05:45:23;100958.66;;;23.19;46.07
60974;BME280;46846;51.528;5.076;2022-08-03T05:47:49;100953.97;;;23.21;45.75
60974;BME280;46846;51.528;5.076;2022-08-03T05:50:16;100952.09;;;23.21;45.70
60974;BME280;46846;51.528;5.076;2022-08-03T05:52:42;100955.81;;;23.20;45.78
60974;BME280;46846;51.528;5.076;2022-08-03T05:55:08;100958.53;;;23.20;45.74
60974;BME280;46846;51.528;5.076;2022-08-03T05:57:34;100957.41;;;23.23;46.05
60974;BME280;46846;51.528;5.076;2022-08-03T06:00:05;100952.69;;;23.25;45.74
60974;BME280;46846;51.528;5.076;2022-08-03T06:02:31;100955.28;;;23.27;45.68
60974;BME280;46846;51.528;5.076;2022-08-03T06:04:57;100956.28;;;23.26;45.83
60974;BME280;46846;51.528;5.076;2022-08-03T06:07:22;100954.19;;;23.29;46.59
60974;BME280;46846;51.528;5.076;2022-08-03T06:09:48;100952.44;;;23.28;45.97
60974;BME280;46846;51.528;5.076;2022-08-03T06:12:13;100955.63;;;23.33;46.39
60974;BME280;46846;51.528;5.076;2022-08-03T06:14:38;100957.34;;;23.34;45.86
60974;BME280;46846;51.528;5.076;2022-08-03T06:17:04;100961.53;;;23.39;46.04
60974;BME280;46846;51.528;5.076;2022-08-03T06:19:29;100960.25;;;23.43;45.76
60974;BME280;46846;51.528;5.076;2022-08-03T06:21:54;100966.41;;;23.45;45.98
60974;BME280;46846;51.528;5.076;2022-08-03T06:24:20;100962.84;;;23.44;46.04
60974;BME280;46846;51.528;5.076;2022-08-03T06:26:45;100963.44;;;23.48;45.79
60974;BME280;46846;51.528;5.076;2022-08-03T06:29:11;100964.00;;;23.52;45.88
60974;BME280;46846;51.528;5.076;2022-08-03T06:31:36;100956.47;;;23.55;46.53
60974;BME280;46846;51.528;5.076;2022-08-03T06:34:03;100959.19;;;23.55;45.84
60974;BME280;46846;51.528;5.076;2022-08-03T06:36:29;100964.19;;;23.60;45.63
60974;BME280;46846;51.528;5.076;2022-08-03T06:38:56;100971.34;;;23.61;45.87
60974;BME280;46846;51.528;5.076;2022-08-03T06:41:22;100967.78;;;23.60;45.85
60974;BME280;46846;51.528;5.076;2022-08-03T06:43:48;100961.81;;;23.67;46.37
60974;BME280;46846;51.528;5.076;2022-08-03T06:46:13;100970.69;;;23.69;46.12
60974;BME280;46846;51.528;5.076;2022-08-03T06:48:38;100973.28;;;23.70;45.87
60974;BME280;46846;51.528;5.076;2022-08-03T06:51:04;100971.28;;;23.72;45.75
60974;BME280;46846;51.528;5.076;2022-08-03T06:53:29;100969.84;;;23.78;45.82
60974;BME280;46846;51.528;5.076;2022-08-03T06:55:54;100978.72;;;23.80;46.28
60974;BME280;46846;51.528;5.076;2022-08-03T06:58:20;100975.88;;;23.82;46.84
60974;BME280;46846;51.528;5.076;2022-08-03T07:00:45;100971.31;;;23.82;45.81
60974;BME280;46846;51.528;5.076;2022-08-03T07:03:10;100972.50;;;23.89;46.36
60974;BME280;46846;51.528;5.076;2022-08-03T07:05:36;100977.63;;;23.93;45.57
60974;BME280;46846;51.528;5.076;2022-08-03T07:08:01;100984.66;;;23.95;45.67
60974;BME280;46846;51.528;5.076;2022-08-03T07:10:27;100985.97;;;24.01;46.07
60974;BME280;46846;51.528;5.076;2022-08-03T07:12:53;100986.44;;;24.06;47.13
60974;BME280;46846;51.528;5.076;2022-08-03T07:15:18;100990.59;;;24.10;45.65
60974;BME280;46846;51.528;5.076;2022-08-03T07:17:44;100991.34;;;24.12;45.99
60974;BME280;46846;51.528;5.076;2022-08-03T07:20:09;100986.19;;;24.19;46.25
60974;BME280;46846;51.528;5.076;2022-08-03T07:22:35;100986.78;;;24.23;46.00
60974;BME280;46846;51.528;5.076;2022-08-03T07:25:00;100992.78;;;24.26;45.93
60974;BME280;46846;51.528;5.076;2022-08-03T07:27:26;100992.38;;;24.31;45.83
60974;BME280;46846;51.528;5.076;2022-08-03T07:29:53;100991.25;;;24.34;45.94
60974;BME280;46846;51.528;5.076;2022-08-03T07:32:19;100992.41;;;24.41;46.29
60974;BME280;46846;51.528;5.076;2022-08-03T07:34:44;100999.44;;;24.43;46.01
60974;BME280;46846;51.528;5.076;2022-08-03T07:37:10;100999.88;;;24.49;46.47
60974;BME280;46846;51.528;5.076;2022-08-03T07:39:35;100993.13;;;24.53;46.10
60974;BME280;46846;51.528;5.076;2022-08-03T07:42:01;101005.31;;;24.58;46.08
60974;BME280;46846;51.528;5.076;2022-08-03T07:44:26;101003.91;;;24.64;46.37
60974;BME280;46846;51.528;5.076;2022-08-03T07:46:51;100995.75;;;24.64;46.09
60974;BME280;46846;51.528;5.076;2022-08-03T07:49:17;100992.59;;;24.69;46.29
60974;BME280;46846;51.528;5.076;2022-08-03T07:51:42;100995.59;;;24.76;46.15
60974;BME280;46846;51.528;5.076;2022-08-03T07:54:07;100987.91;;;24.81;46.23
60974;BME280;46846;51.528;5.076;2022-08-03T07:56:34;100988.47;;;24.84;46.23
60974;BME280;46846;51.528;5.076;2022-08-03T07:59:00;100984.19;;;24.92;46.02
60974;BME280;46846;51.528;5.076;2022-08-03T08:01:27;100981.72;;;24.98;46.06
60974;BME280;46846;51.528;5.076;2022-08-03T08:03:52;100981.28;;;25.03;45.85
60974;BME280;46846;51.528;5.076;2022-08-03T08:06:17;100987.03;;;25.10;46.16
60974;BME280;46846;51.528;5.076;2022-08-03T08:08:43;100991.03;;;25.16;46.14
60974;BME280;46846;51.528;5.076;2022-08-03T08:11:09;100983.28;;;25.21;46.19
60974;BME280;46846;51.528;5.076;2022-08-03T08:13:34;100990.72;;;25.29;46.34
60974;BME280;46846;51.528;5.076;2022-08-03T08:16:02;100993.56;;;25.37;46.41
60974;BME280;46846;51.528;5.076;2022-08-03T08:18:27;100988.41;;;25.44;45.82
60974;BME280;46846;51.528;5.076;2022-08-03T08:20:54;100981.34;;;25.51;45.80
60974;BME280;46846;51.528;5.076;2022-08-03T08:23:19;100986.38;;;25.56;46.07
60974;BME280;46846;51.528;5.076;2022-08-03T08:25:51;100981.06;;;25.64;46.04
60974;BME280;46846;51.528;5.076;2022-08-03T08:28:18;100982.88;;;25.73;46.09
60974;BME280;46846;51.528;5.076;2022-08-03T08:30:44;100984.16;;;25.79;45.78
60974;BME280;46846;51.528;5.076;2022-08-03T08:33:09;100982.69;;;25.85;45.82
60974;BME280;46846;51.528;5.076;2022-08-03T08:35:35;100984.53;;;25.94;45.97
60974;BME280;46846;51.528;5.076;2022-08-03T08:38:00;100981.88;;;26.02;45.87
60974;BME280;46846;51.528;5.076;2022-08-03T08:40:26;100988.31;;;26.11;45.72
60974;BME280;46846;51.528;5.076;2022-08-03T08:42:52;100979.69;;;26.16;45.64
60974;BME280;46846;51.528;5.076;2022-08-03T08:45:17;100980.81;;;26.23;45.61
60974;BME280;46846;51.528;5.076;2022-08-03T08:47:45;100979.03;;;26.32;45.52
60974;BME280;46846;51.528;5.076;2022-08-03T08:50:11;100974.69;;;26.39;45.61
60974;BME280;46846;51.528;5.076;2022-08-03T08:52:39;100983.97;;;26.46;45.19
60974;BME280;46846;51.528;5.076;2022-08-03T08:55:07;100974.84;;;26.56;45.04
60974;BME280;46846;51.528;5.076;2022-08-03T08:57:36;100977.66;;;26.64;45.16
60974;BME280;46846;51.528;5.076;2022-08-03T09:00:09;100976.03;;;26.71;45.15
60974;BME280;46846;51.528;5.076;2022-08-03T09:02:38;100974.38;;;26.79;44.71
60974;BME280;46846;51.528;5.076;2022-08-03T09:05:04;100975.31;;;26.87;44.37
60974;BME280;46846;51.528;5.076;2022-08-03T09:07:29;100975.56;;;26.94;44.82
60974;BME280;46846;51.528;5.076;2022-08-03T09:09:55;100981.09;;;27.02;44.43
60974;BME280;46846;51.528;5.076;2022-08-03T09:12:21;100972.97;;;27.11;44.25
60974;BME280;46846;51.528;5.076;2022-08-03T09:14:46;100972.34;;;27.17;44.49
60974;BME280;46846;51.528;5.076;2022-08-03T09:17:12;100978.00;;;27.24;44.35
60974;BME280;46846;51.528;5.076;2022-08-03T09:19:37;100977.06;;;27.33;43.89
60974;BME280;46846;51.528;5.076;2022-08-03T09:22:07;100976.09;;;27.42;44.43
60974;BME280;46846;51.528;5.076;2022-08-03T09:24:34;100979.91;;;27.50;44.36
60974;BME280;46846;51.528;5.076;2022-08-03T09:27:00;100983.59;;;27.59;44.49
60974;BME280;46846;51.528;5.076;2022-08-03T09:29:25;100975.75;;;27.64;44.20
60974;BME280;46846;51.528;5.076;2022-08-03T09:31:59;100970.16;;;27.74;44.14
60974;BME280;46846;51.528;5.076;2022-08-03T09:34:25;100975.66;;;27.82;44.16
60974;BME280;46846;51.528;5.076;2022-08-03T09:36:53;100967.69;;;27.89;43.74
60974;BME280;46846;51.528;5.076;2022-08-03T09:39:19;100975.03;;;27.96;43.34
60974;BME280;46846;51.528;5.076;2022-08-03T09:42:05;100971.31;;;28.06;43.71
60974;BME280;46846;51.528;5.076;2022-08-03T09:44:36;100973.22;;;28.14;43.70
60974;BME280;46846;51.528;5.076;2022-08-03T09:47:02;100969.69;;;28.21;41.86
60974;BME280;46846;51.528;5.076;2022-08-03T09:49:28;100962.50;;;28.29;42.91
60974;BME280;46846;51.528;5.076;2022-08-03T09:51:53;100970.75;;;28.37;43.07
60974;BME280;46846;51.528;5.076;2022-08-03T09:54:29;100972.50;;;28.46;42.95
60974;BME280;46846;51.528;5.076;2022-08-03T09:56:55;100968.38;;;28.50;42.41
60974;BME280;46846;51.528;5.076;2022-08-03T09:59:26;100967.38;;;28.60;42.78
60974;BME280;46846;51.528;5.076;2022-08-03T10:01:53;100968.44;;;28.67;42.35
60974;BME280;46846;51.528;5.076;2022-08-03T10:04:19;100966.69;;;28.74;42.48
60974;BME280;46846;51.528;5.076;2022-08-03T10:06:45;100962.44;;;28.80;42.62
60974;BME280;46846;51.528;5.076;2022-08-03T10:09:25;100966.25;;;28.87;42.64
60974;BME280;46846;51.528;5.076;2022-08-03T10:11:50;100970.00;;;28.95;42.25
60974;BME280;46846;51.528;5.076;2022-08-03T10:14:16;100967.41;;;29.01;42.59
60974;BME280;46846;51.528;5.076;2022-08-03T10:16:46;100961.94;;;29.10;42.15
60974;BME280;46846;51.528;5.076;2022-08-03T10:19:12;100974.94;;;29.16;42.46
60974;BME280;46846;51.528;5.076;2022-08-03T10:21:41;100972.19;;;29.24;41.46
60974;BME280;46846;51.528;5.076;2022-08-03T10:24:08;100968.41;;;29.33;42.04
60974;BME280;46846;51.528;5.076;2022-08-03T10:26:37;100963.25;;;29.39;41.03
60974;BME280;46846;51.528;5.076;2022-08-03T10:29:04;100962.56;;;29.45;40.73
60974;BME280;46846;51.528;5.076;2022-08-03T10:31:38;100963.59;;;29.52;41.19
60974;BME280;46846;51.528;5.076;2022-08-03T10:34:16;100959.81;;;29.61;41.59
60974;BME280;46846;51.528;5.076;2022-08-03T10:36:43;100959.28;;;29.66;40.89
60974;BME280;46846;51.528;5.076;2022-08-03T10:39:10;100965.97;;;29.72;40.87
60974;BME280;46846;51.528;5.076;2022-08-03T10:41:39;100957.88;;;29.79;41.19
60974;BME280;46846;51.528;5.076;2022-08-03T10:44:08;100951.19;;;29.81;41.23
60974;BME280;46846;51.528;5.076;2022-08-03T10:46:35;100946.00;;;29.86;40.95
60974;BME280;46846;51.528;5.076;2022-08-03T10:49:03;100947.19;;;29.92;40.09
60974;BME280;46846;51.528;5.076;2022-08-03T10:51:29;100945.78;;;29.96;40.74
60974;BME280;46846;51.528;5.076;2022-08-03T10:53:57;100944.72;;;30.06;40.64
60974;BME280;46846;51.528;5.076;2022-08-03T11:02:10;100938.72;;;30.10;41.09
60974;BME280;46846;51.528;5.076;2022-08-03T11:04:38;100928.53;;;30.19;40.73
60974;BME280;46846;51.528;5.076;2022-08-03T11:09:45;100934.19;;;30.26;40.38
60974;BME280;46846;51.528;5.076;2022-08-03T11:12:31;100926.06;;;30.33;40.62
60974;BME280;46846;51.528;5.076;2022-08-03T11:14:59;100928.94;;;30.39;40.68
60974;BME280;46846;51.528;5.076;2022-08-03T11:17:25;100931.81;;;30.46;39.89
60974;BME280;46846;51.528;5.076;2022-08-03T11:19:52;100926.97;;;30.48;39.78
60974;BME280;46846;51.528;5.076;2022-08-03T11:22:19;100928.13;;;30.54;40.01
60974;BME280;46846;51.528;5.076;2022-08-03T11:30:10;100931.63;;;30.71;39.86
60974;BME280;46846;51.528;5.076;2022-08-03T11:35:17;100924.25;;;30.72;39.64
60974;BME280;46846;51.528;5.076;2022-08-03T11:46:07;100931.31;;;30.89;39.93
60974;BME280;46846;51.528;5.076;2022-08-03T11:48:33;100932.44;;;30.95;39.06
60974;BME280;46846;51.528;5.076;2022-08-03T11:51:04;100925.72;;;30.97;39.74
60974;BME280;46846;51.528;5.076;2022-08-03T11:53:29;100928.31;;;30.99;38.06
60974;BME280;46846;51.528;5.076;2022-08-03T11:55:58;100929.44;;;31.05;39.80
60974;BME280;46846;51.528;5.076;2022-08-03T11:58:25;100932.41;;;31.03;39.18
60974;BME280;46846;51.528;5.076;2022-08-03T12:00:50;100926.03;;;31.03;39.69
60974;BME280;46846;51.528;5.076;2022-08-03T12:03:18;100923.03;;;31.13;39.38
60974;BME280;46846;51.528;5.076;2022-08-03T12:05:49;100917.44;;;31.21;39.28
60974;BME280;46846;51.528;5.076;2022-08-03T12:10:52;100926.16;;;31.24;39.20
60974;BME280;46846;51.528;5.076;2022-08-03T12:13:19;100920.13;;;31.29;38.45
60974;BME280;46846;51.528;5.076;2022-08-03T12:15:50;100924.41;;;31.32;39.47
60974;BME280;46846;51.528;5.076;2022-08-03T12:18:17;100931.66;;;31.24;38.16
60974;BME280;46846;51.528;5.076;2022-08-03T12:20:45;100915.03;;;31.26;37.82
60974;BME280;46846;51.528;5.076;2022-08-03T12:23:11;100923.25;;;31.26;39.03
60974;BME280;46846;51.528;5.076;2022-08-03T12:25:39;100927.56;;;31.20;38.95
60974;BME280;46846;51.528;5.076;2022-08-03T12:28:16;100917.56;;;31.28;39.18
60974;BME280;46846;51.528;5.076;2022-08-03T12:30:47;100921.34;;;31.27;39.33
60974;BME280;46846;51.528;5.076;2022-08-03T12:33:25;100915.00;;;31.41;38.50
60974;BME280;46846;51.528;5.076;2022-08-03T12:36:09;100919.47;;;31.42;39.63
60974;BME280;46846;51.528;5.076;2022-08-03T12:38:37;100919.94;;;31.46;39.44
60974;BME280;46846;51.528;5.076;2022-08-03T12:41:05;100921.16;;;31.43;39.09
60974;BME280;46846;51.528;5.076;2022-08-03T12:43:31;100921.56;;;31.40;39.09
60974;BME280;46846;51.528;5.076;2022-08-03T12:46:14;100919.84;;;31.39;38.59
60974;BME280;46846;51.528;5.076;2022-08-03T12:48:59;100921.38;;;31.42;37.91
60974;BME280;46846;51.528;5.076;2022-08-03T12:51:26;100914.72;;;31.51;37.72
60974;BME280;46846;51.528;5.076;2022-08-03T12:53:53;100919.25;;;31.59;37.45
60974;BME280;46846;51.528;5.076;2022-08-03T12:56:19;100918.97;;;31.69;38.45
60974;BME280;46846;51.528;5.076;2022-08-03T12:58:44;100917.09;;;31.69;37.91
60974;BME280;46846;51.528;5.076;2022-08-03T13:01:12;100919.44;;;31.72;38.39
60974;BME280;46846;51.528;5.076;2022-08-03T13:03:42;100913.81;;;31.81;38.54
60974;BME280;46846;51.528;5.076;2022-08-03T13:06:15;100906.94;;;31.85;38.51
60974;BME280;46846;51.528;5.076;2022-08-03T13:08:42;100913.69;;;31.82;38.02
60974;BME280;46846;51.528;5.076;2022-08-03T13:11:25;100906.94;;;31.85;39.35
60974;BME280;46846;51.528;5.076;2022-08-03T13:13:52;100906.28;;;31.83;38.82
60974;BME280;46846;51.528;5.076;2022-08-03T13:16:17;100914.16;;;31.86;38.73
60974;BME280;46846;51.528;5.076;2022-08-03T13:18:43;100907.09;;;31.98;37.82
60974;BME280;46846;51.528;5.076;2022-08-03T13:21:12;100897.03;;;32.05;37.59
60974;BME280;46846;51.528;5.076;2022-08-03T13:23:37;100898.31;;;32.10;36.53
60974;BME280;46846;51.528;5.076;2022-08-03T13:26:03;100900.72;;;32.13;37.62
60974;BME280;46846;51.528;5.076;2022-08-03T13:28:28;100903.19;;;32.08;39.07